createdAt,value
2023-02-23T00:01:52.798Z,39.13
2023-02-23T00:04:20.980Z,39.80
2023-02-23T00:06:48.870Z,41.13
2023-02-23T00:09:23.174Z,41.10
2023-02-23T00:11:51.933Z,39.93
2023-02-23T00:14:19.951Z,40.53
2023-02-23T00:16:47.800Z,39.67
2023-02-23T00:19:17.585Z,40.43
2023-02-23T00:21:45.873Z,42.20
2023-02-23T00:24:15.609Z,41.70
2023-02-23T00:26:43.652Z,42.03
2023-02-23T00:29:16.641Z,41.03
2023-02-23T00:31:45.227Z,42.53
2023-02-23T00:34:15.067Z,40.73
2023-02-23T00:36:44.416Z,40.17
2023-02-23T00:39:21.585Z,39.73
2023-02-23T00:41:49.575Z,43.60
2023-02-23T00:44:17.536Z,40.67
2023-02-23T00:46:49.166Z,40.90
2023-02-23T00:49:16.948Z,42.40
2023-02-23T00:51:46.868Z,40.87
2023-02-23T00:54:16.137Z,40.27
2023-02-23T00:56:44.080Z,41.47
2023-02-23T00:59:12.793Z,40.90
2023-02-23T01:01:41.852Z,39.03
2023-02-23T01:04:10.724Z,39.53
2023-02-23T01:06:38.911Z,40.03
2023-02-23T01:09:10.464Z,39.50
2023-02-23T01:11:38.210Z,40.80
2023-02-23T01:14:06.106Z,38.83
2023-02-23T01:16:35.845Z,40.40
2023-02-23T01:19:05.535Z,40.23
2023-02-23T01:21:35.437Z,38.80
2023-02-23T01:24:03.765Z,40.93
2023-02-23T01:26:35.037Z,42.87
2023-02-23T01:29:05.573Z,39.03
2023-02-23T01:31:33.434Z,40.77
2023-02-23T01:34:02.566Z,39.87
2023-02-23T01:36:31.219Z,40.47
2023-02-23T01:39:00.167Z,41.10
2023-02-23T01:41:29.310Z,42.60
2023-02-23T01:44:00.229Z,41.60
2023-02-23T01:46:28.541Z,39.73
2023-02-23T01:48:57.330Z,41.23
2023-02-23T01:51:26.820Z,41.73
2023-02-23T01:53:59.023Z,41.97
2023-02-23T01:56:30.314Z,41.40
2023-02-23T01:59:01.326Z,40.43
2023-02-23T02:01:30.095Z,43.53
2023-02-23T02:03:59.258Z,43.27
2023-02-23T02:06:29.711Z,41.90
2023-02-23T02:09:06.214Z,42.90
2023-02-23T02:11:37.186Z,42.60
2023-02-23T02:14:13.160Z,42.23
2023-02-23T02:17:02.300Z,42.57
2023-02-23T02:20:00.550Z,42.87
2023-02-23T02:22:51.735Z,42.23
2023-02-23T02:25:37.257Z,41.63
2023-02-23T02:28:42.294Z,42.97
2023-02-23T02:31:36.744Z,42.10
2023-02-23T02:34:26.866Z,41.57
2023-02-23T02:37:22.510Z,42.63
2023-02-23T02:39:55.519Z,43.53
2023-02-23T02:42:29.586Z,42.47
2023-02-23T02:45:07.721Z,42.73
2023-02-23T02:47:39.450Z,42.87
2023-02-23T02:50:12.469Z,45.07
2023-02-23T02:52:44.440Z,45.00
2023-02-23T02:55:16.268Z,46.53
2023-02-23T02:57:46.808Z,46.10
2023-02-23T03:00:36.693Z,45.57
2023-02-23T03:03:21.889Z,44.13
2023-02-23T03:06:08.673Z,45.73
2023-02-23T03:09:01.711Z,46.67
2023-02-23T03:11:54.041Z,43.77
2023-02-23T03:14:47.030Z,44.87
2023-02-23T03:17:38.569Z,44.63
2023-02-23T03:20:30.772Z,45.23
2023-02-23T03:23:20.610Z,45.47
2023-02-23T03:26:13.679Z,47.10
2023-02-23T03:29:04.691Z,48.33
2023-02-23T03:31:56.740Z,44.80
2023-02-23T03:34:47.729Z,47.53
2023-02-23T03:37:37.312Z,48.03
2023-02-23T03:40:26.252Z,44.60
2023-02-23T03:43:14.690Z,46.77
2023-02-23T03:46:01.123Z,46.17
2023-02-23T03:48:46.539Z,45.93
2023-02-23T03:51:33.286Z,46.87
2023-02-23T03:54:21.977Z,47.00
2023-02-23T03:57:09.913Z,46.20
2023-02-23T04:00:00.198Z,47.27
2023-02-23T04:02:45.987Z,48.07
2023-02-23T04:05:34.854Z,49.17
2023-02-23T04:08:22.068Z,47.40
2023-02-23T04:11:09.738Z,47.03
2023-02-23T04:13:38.015Z,48.57
2023-02-23T04:16:08.486Z,47.23
2023-02-23T04:18:37.797Z,48.27
2023-02-23T04:21:07.017Z,47.17
2023-02-23T04:23:35.512Z,50.63
2023-02-23T04:26:05.221Z,47.03
2023-02-23T04:28:33.038Z,47.40
2023-02-23T04:31:00.803Z,47.27
2023-02-23T04:33:30.020Z,47.20
2023-02-23T04:35:57.792Z,47.20
2023-02-23T04:38:25.589Z,45.47
2023-02-23T04:40:53.329Z,45.47
2023-02-23T04:43:21.154Z,45.03
2023-02-23T04:45:49.233Z,45.13
2023-02-23T04:48:17.010Z,44.47
2023-02-23T04:50:46.247Z,44.87
2023-02-23T04:53:14.074Z,46.80
2023-02-23T04:55:42.138Z,46.47
2023-02-23T04:58:13.567Z,47.20
2023-02-23T05:00:41.640Z,45.07
2023-02-23T05:03:09.829Z,45.80
2023-02-23T05:05:37.638Z,46.60
2023-02-23T05:08:07.640Z,49.00
2023-02-23T05:10:35.654Z,48.20
2023-02-23T05:13:03.435Z,48.67
2023-02-23T05:15:31.320Z,48.73
2023-02-23T05:17:59.279Z,46.80
2023-02-23T05:20:27.000Z,47.70
2023-02-23T05:22:54.775Z,47.17
2023-02-23T05:25:24.018Z,47.50
2023-02-23T05:27:51.959Z,48.30
2023-02-23T05:30:19.978Z,49.33
2023-02-23T05:32:47.773Z,50.83
2023-02-23T05:35:15.659Z,48.77
2023-02-23T05:37:44.669Z,49.47
2023-02-23T05:40:13.632Z,50.57
2023-02-23T05:42:43.468Z,48.57
2023-02-23T05:45:11.507Z,50.67
2023-02-23T05:47:39.591Z,47.97
2023-02-23T05:50:09.038Z,48.50
2023-02-23T05:52:39.065Z,48.67
2023-02-23T05:55:07.849Z,48.47
2023-02-23T05:57:35.659Z,47.77
2023-02-23T06:00:07.092Z,47.67
2023-02-23T06:02:36.508Z,45.63
2023-02-23T06:05:06.033Z,49.20
2023-02-23T06:07:33.815Z,46.40
2023-02-23T06:10:01.618Z,44.47
2023-02-23T06:12:29.447Z,45.57
2023-02-23T06:14:57.212Z,43.97
2023-02-23T06:17:26.555Z,42.37
2023-02-23T06:19:54.350Z,43.73
2023-02-23T06:22:22.078Z,44.23
2023-02-23T06:24:51.117Z,43.23
2023-02-23T06:29:54.223Z,44.57
2023-02-23T06:32:22.149Z,43.43
2023-02-23T06:34:51.358Z,45.13
2023-02-23T06:37:19.149Z,44.30
2023-02-23T06:39:47.354Z,42.07
2023-02-23T06:42:15.385Z,44.00
2023-02-23T06:44:43.270Z,41.90
2023-02-23T06:47:11.320Z,44.13
2023-02-23T06:49:40.485Z,44.63
2023-02-23T06:52:09.964Z,44.67
2023-02-23T06:54:39.874Z,44.47
2023-02-23T06:57:08.046Z,41.57
2023-02-23T06:59:36.578Z,44.27
2023-02-23T07:02:04.772Z,44.73
2023-02-23T07:04:32.935Z,43.57
2023-02-23T07:07:01.211Z,44.23
2023-02-23T07:09:30.772Z,43.43
2023-02-23T07:11:58.551Z,44.37
2023-02-23T07:14:27.333Z,44.30
2023-02-23T07:16:55.292Z,46.13
2023-02-23T07:19:23.640Z,44.30
2023-02-23T07:21:51.543Z,43.80
2023-02-23T07:24:19.455Z,43.03
2023-02-23T07:26:49.686Z,45.60
2023-02-23T07:29:17.583Z,43.47
2023-02-23T07:31:45.480Z,44.87
2023-02-23T07:34:13.383Z,45.30
2023-02-23T07:36:42.206Z,45.87
2023-02-23T07:39:09.989Z,45.80
2023-02-23T07:41:37.790Z,46.27
2023-02-23T07:44:07.297Z,47.63
2023-02-23T07:46:35.009Z,47.97
2023-02-23T07:49:03.038Z,47.37
2023-02-23T07:51:30.832Z,47.90
2023-02-23T07:53:58.711Z,49.10
2023-02-23T07:56:27.515Z,46.00
2023-02-23T07:58:55.551Z,48.33
2023-02-23T08:01:24.970Z,47.70
2023-02-23T08:03:52.830Z,46.33
2023-02-23T08:06:21.036Z,46.67
2023-02-23T08:08:48.859Z,45.87
2023-02-23T08:11:17.005Z,44.97
2023-02-23T08:13:44.895Z,43.93
2023-02-23T08:16:12.654Z,43.07
2023-02-23T08:18:41.929Z,44.30
2023-02-23T08:21:09.795Z,44.13
2023-02-23T08:23:37.751Z,44.97
2023-02-23T08:26:05.995Z,44.90
2023-02-23T08:28:33.865Z,44.83
2023-02-23T08:31:01.846Z,44.03
2023-02-23T08:33:31.668Z,46.10
2023-02-23T08:36:02.830Z,45.33
2023-02-23T08:38:30.787Z,47.23
2023-02-23T08:41:01.712Z,45.07
2023-02-23T08:43:29.475Z,46.33
2023-02-23T08:45:57.299Z,46.40
2023-02-23T08:48:26.253Z,47.50
2023-02-23T08:50:57.756Z,47.73
2023-02-23T08:53:29.653Z,48.03
2023-02-23T08:55:58.821Z,49.27
2023-02-23T08:58:26.696Z,50.13
2023-02-23T09:00:54.601Z,51.50
2023-02-23T09:03:23.280Z,50.60
2023-02-23T09:05:51.224Z,50.43
2023-02-23T09:08:19.293Z,50.47
2023-02-23T09:10:48.591Z,52.10
2023-02-23T09:13:16.608Z,52.33
2023-02-23T09:15:44.600Z,51.10
2023-02-23T09:18:15.280Z,52.40
2023-02-23T09:20:44.156Z,52.17
2023-02-23T09:23:12.693Z,51.00
2023-02-23T09:25:43.276Z,53.10
2023-02-23T09:28:13.411Z,52.50
2023-02-23T09:30:42.236Z,53.77
2023-02-23T09:33:10.126Z,53.87
2023-02-23T09:35:38.197Z,54.80
2023-02-23T09:38:07.290Z,56.33
2023-02-23T09:40:39.235Z,54.53
2023-02-23T09:43:15.418Z,55.43
2023-02-23T09:45:44.481Z,56.10
2023-02-23T09:48:17.876Z,55.53
2023-02-23T09:50:49.093Z,53.00
2023-02-23T09:53:27.669Z,52.97
2023-02-23T09:55:57.443Z,54.20
2023-02-23T09:58:28.373Z,58.53
2023-02-23T10:01:27.111Z,57.23
2023-02-23T10:03:58.046Z,55.10
2023-02-23T10:06:25.987Z,60.50
2023-02-23T10:09:03.672Z,59.20
2023-02-23T10:11:38.720Z,59.13
2023-02-23T10:14:24.410Z,61.50
2023-02-23T10:17:01.313Z,60.93
2023-02-23T10:19:33.706Z,62.27
2023-02-23T10:22:04.719Z,61.30
2023-02-23T10:24:37.769Z,61.73
2023-02-23T10:27:11.558Z,61.97
2023-02-23T10:29:44.318Z,64.83
2023-02-23T10:32:21.012Z,65.03
2023-02-23T10:34:50.789Z,63.33
2023-02-23T10:37:19.080Z,62.67
2023-02-23T10:39:49.251Z,65.30
2023-02-23T10:42:19.107Z,65.47
2023-02-23T10:44:48.912Z,63.20
2023-02-23T10:47:19.192Z,62.30
2023-02-23T10:49:48.189Z,64.40
2023-02-23T10:52:18.450Z,66.33
2023-02-23T10:54:47.818Z,63.23
2023-02-23T10:57:24.731Z,63.73
2023-02-23T11:00:06.067Z,63.10
2023-02-23T11:02:36.475Z,63.10
2023-02-23T11:05:06.117Z,65.00
2023-02-23T11:07:34.884Z,62.87
2023-02-23T11:10:27.208Z,64.80
2023-02-23T11:12:55.265Z,62.13
2023-02-23T11:15:46.501Z,63.03
2023-02-23T11:18:22.532Z,59.40
2023-02-23T11:20:51.916Z,61.70
2023-02-23T11:23:23.775Z,61.03
2023-02-23T11:25:55.500Z,63.43
2023-02-23T11:28:28.745Z,63.77
2023-02-23T11:30:59.718Z,64.77
2023-02-23T11:33:31.530Z,64.87
2023-02-23T11:36:00.952Z,64.83
2023-02-23T11:38:32.397Z,66.67
2023-02-23T11:41:02.319Z,62.27
2023-02-23T11:43:31.888Z,63.83
2023-02-23T11:46:02.146Z,61.90
2023-02-23T11:48:32.627Z,59.63
2023-02-23T11:51:00.947Z,59.53
2023-02-23T11:53:31.584Z,57.60
2023-02-23T11:56:02.780Z,55.73
2023-02-23T11:58:37.070Z,57.93
2023-02-23T12:01:12.150Z,56.63
2023-02-23T12:03:47.803Z,56.37
2023-02-23T12:06:30.598Z,59.57
2023-02-23T12:09:03.812Z,60.43
2023-02-23T12:11:35.214Z,57.73
2023-02-23T12:14:06.654Z,59.60
2023-02-23T12:16:39.500Z,62.50
2023-02-23T12:19:19.963Z,60.97
2023-02-23T12:21:50.990Z,63.60
2023-02-23T12:24:24.001Z,60.80
2023-02-23T12:26:56.109Z,63.23
2023-02-23T12:29:30.798Z,60.17
2023-02-23T12:32:02.923Z,61.60
2023-02-23T12:34:34.422Z,60.00
2023-02-23T12:37:07.469Z,61.33
2023-02-23T12:39:37.953Z,61.30
2023-02-23T12:42:08.972Z,59.03
2023-02-23T12:44:42.681Z,58.60
2023-02-23T12:47:20.476Z,58.43
2023-02-23T12:49:53.430Z,58.23
2023-02-23T12:52:23.021Z,59.37
2023-02-23T12:54:50.845Z,60.63
2023-02-23T12:57:25.240Z,58.40
2023-02-23T13:00:24.703Z,60.93
2023-02-23T13:02:59.408Z,55.37
2023-02-23T13:05:28.675Z,57.07
2023-02-23T13:08:13.297Z,61.17
2023-02-23T13:10:47.339Z,59.30
2023-02-23T13:13:24.447Z,58.07
2023-02-23T13:16:00.227Z,58.43
2023-02-23T13:18:34.824Z,60.00
2023-02-23T13:21:08.432Z,57.83
2023-02-23T13:23:38.399Z,57.63
2023-02-23T13:26:13.140Z,57.43
2023-02-23T13:28:51.258Z,60.97
2023-02-23T13:31:25.308Z,61.70
2023-02-23T13:33:56.135Z,58.60
2023-02-23T13:36:24.562Z,59.40
2023-02-23T13:39:19.269Z,60.70
2023-02-23T13:41:54.235Z,59.27
2023-02-23T13:44:26.835Z,60.10
2023-02-23T13:47:01.528Z,60.73
2023-02-23T13:49:39.903Z,58.50
2023-02-23T13:52:18.322Z,58.00
2023-02-23T13:54:56.287Z,58.20
2023-02-23T13:57:24.565Z,58.83
2023-02-23T13:59:52.692Z,60.87
2023-02-23T14:02:37.134Z,57.07
2023-02-23T14:05:09.086Z,59.47
2023-02-23T14:07:41.111Z,57.53
2023-02-23T14:10:11.568Z,59.23
2023-02-23T14:12:42.390Z,60.83
2023-02-23T14:15:31.990Z,58.33
2023-02-23T14:18:00.662Z,59.60
2023-02-23T14:20:45.865Z,58.53
2023-02-23T14:23:28.158Z,56.63
2023-02-23T14:26:12.820Z,56.30
2023-02-23T14:28:42.470Z,53.93
2023-02-23T14:31:23.235Z,57.53
2023-02-23T14:33:55.735Z,56.50
2023-02-23T14:36:45.038Z,55.83
2023-02-23T14:39:20.047Z,56.30
2023-02-23T14:41:51.138Z,57.10
2023-02-23T14:44:29.974Z,58.50
2023-02-23T14:47:03.682Z,55.43
2023-02-23T14:49:35.014Z,58.07
2023-02-23T14:52:08.904Z,55.40
2023-02-23T14:54:38.512Z,55.83
2023-02-23T14:57:07.943Z,57.03
2023-02-23T14:59:40.265Z,55.10
2023-02-23T15:02:12.598Z,54.07
2023-02-23T15:04:40.462Z,55.90
2023-02-23T15:07:18.607Z,58.87
2023-02-23T15:09:48.017Z,56.03
2023-02-23T15:12:17.994Z,54.40
2023-02-23T15:14:47.509Z,55.30
2023-02-23T15:17:18.131Z,55.73
2023-02-23T15:19:46.564Z,56.70
2023-02-23T15:22:25.744Z,54.80
2023-02-23T15:24:53.588Z,55.47
2023-02-23T15:27:27.200Z,57.50
2023-02-23T15:29:55.415Z,56.77
2023-02-23T15:32:25.415Z,54.13
2023-02-23T15:34:55.431Z,53.80
2023-02-23T15:37:31.024Z,58.27
2023-02-23T15:40:00.867Z,59.50
2023-02-23T15:42:33.295Z,58.67
2023-02-23T15:45:02.837Z,56.60
2023-02-23T15:47:34.464Z,60.43
2023-02-23T15:50:07.478Z,55.53
2023-02-23T15:52:44.098Z,58.10
2023-02-23T15:55:24.888Z,58.70
2023-02-23T15:57:58.917Z,56.90
2023-02-23T16:00:33.573Z,57.60
2023-02-23T16:03:02.974Z,59.03
2023-02-23T16:05:46.508Z,58.33
2023-02-23T16:08:24.178Z,58.23
2023-02-23T16:10:55.058Z,58.87
2023-02-23T16:13:23.346Z,56.73
2023-02-23T16:15:52.638Z,60.50
2023-02-23T16:18:24.069Z,60.20
2023-02-23T16:20:56.152Z,58.57
2023-02-23T16:23:34.171Z,56.93
2023-02-23T16:26:10.127Z,57.67
2023-02-23T16:28:43.141Z,56.77
2023-02-23T16:31:13.932Z,59.23
2023-02-23T16:33:43.656Z,57.47
2023-02-23T16:36:19.838Z,59.10
2023-02-23T16:38:59.062Z,58.30
2023-02-23T16:41:28.198Z,58.17
2023-02-23T16:43:58.457Z,58.87
2023-02-23T16:46:30.021Z,59.07
2023-02-23T16:49:10.300Z,58.37
2023-02-23T16:51:38.330Z,57.73
2023-02-23T16:54:08.679Z,57.33
2023-02-23T16:56:37.096Z,58.50
2023-02-23T16:59:05.674Z,58.27
2023-02-23T17:01:33.680Z,59.07
2023-02-23T17:04:02.664Z,57.67
2023-02-23T17:06:30.443Z,57.73
2023-02-23T17:08:58.719Z,57.67
2023-02-23T17:11:28.120Z,59.07
2023-02-23T17:13:56.206Z,59.07
2023-02-23T17:16:24.492Z,63.30
2023-02-23T17:18:52.459Z,59.13
2023-02-23T17:21:23.741Z,60.77
2023-02-23T17:23:53.138Z,59.50
2023-02-23T17:26:23.176Z,61.90
2023-02-23T17:28:54.051Z,60.57
2023-02-23T17:31:24.184Z,59.47
2023-02-23T17:33:55.227Z,59.93
2023-02-23T17:36:23.879Z,63.27
2023-02-23T17:38:58.464Z,64.33
2023-02-23T17:41:29.818Z,65.63
2023-02-23T17:44:00.802Z,66.43
2023-02-23T17:46:29.935Z,63.33
2023-02-23T17:48:57.819Z,65.77
2023-02-23T17:51:25.799Z,62.87
2023-02-23T17:53:53.694Z,63.47
2023-02-23T17:56:23.645Z,63.23
2023-02-23T17:58:51.550Z,59.47
2023-02-23T18:01:21.305Z,61.53
2023-02-23T18:03:50.965Z,60.60
2023-02-23T18:06:19.750Z,57.67
2023-02-23T18:08:47.671Z,56.40
2023-02-23T18:11:18.650Z,55.00
2023-02-23T18:13:48.097Z,52.77
2023-02-23T18:16:16.295Z,53.33
2023-02-23T18:18:47.823Z,53.97
2023-02-23T18:21:17.723Z,50.83
2023-02-23T18:23:45.798Z,51.23
2023-02-23T18:26:15.531Z,53.30
2023-02-23T18:28:50.525Z,51.23
2023-02-23T18:31:20.908Z,52.20
2023-02-23T18:33:53.075Z,52.10
2023-02-23T18:36:22.948Z,53.30
2023-02-23T18:38:51.016Z,51.33
2023-02-23T18:41:19.835Z,51.73
2023-02-23T18:43:48.129Z,51.23
2023-02-23T18:46:16.771Z,51.17
2023-02-23T18:48:44.740Z,49.40
2023-02-23T18:51:14.658Z,49.90
2023-02-23T18:53:44.518Z,49.97
2023-02-23T18:56:13.813Z,48.20
2023-02-23T18:58:42.073Z,47.30
2023-02-23T19:01:13.366Z,47.07
2023-02-23T19:03:41.606Z,46.10
2023-02-23T19:06:11.487Z,46.57
2023-02-23T19:08:42.225Z,46.57
2023-02-23T19:11:10.515Z,45.57
2023-02-23T19:13:38.973Z,46.37
2023-02-23T19:16:08.520Z,47.83
2023-02-23T19:18:37.096Z,48.67
2023-02-23T19:21:07.619Z,48.27
2023-02-23T19:23:36.072Z,49.20
2023-02-23T19:26:06.018Z,48.43
2023-02-23T19:28:33.924Z,50.70
2023-02-23T19:31:03.312Z,48.50
2023-02-23T19:33:31.355Z,49.53
2023-02-23T19:36:00.884Z,47.83
2023-02-23T19:38:28.794Z,49.37
2023-02-23T19:40:58.124Z,49.93
2023-02-23T19:43:27.405Z,48.53
2023-02-23T19:45:55.451Z,50.17
2023-02-23T19:48:25.290Z,47.83
2023-02-23T19:50:54.784Z,49.27
2023-02-23T19:53:22.618Z,49.50
2023-02-23T19:55:59.802Z,49.00
2023-02-23T19:58:29.170Z,51.03
2023-02-23T20:00:57.642Z,51.40
2023-02-23T20:03:28.206Z,51.60
2023-02-23T20:05:57.051Z,53.13
2023-02-23T20:08:25.395Z,51.77
2023-02-23T20:10:53.663Z,52.80
2023-02-23T20:13:23.620Z,50.87
2023-02-23T20:16:01.448Z,51.03
2023-02-23T20:18:29.425Z,48.67
2023-02-23T20:20:57.430Z,51.67
2023-02-23T20:23:25.273Z,52.80
2023-02-23T20:25:53.083Z,51.53
2023-02-23T20:28:20.862Z,50.70
2023-02-23T20:30:49.118Z,51.93
2023-02-23T20:33:18.304Z,50.20
2023-02-23T20:35:46.098Z,51.27
2023-02-23T20:38:14.163Z,52.33
2023-02-23T20:40:42.101Z,52.03
2023-02-23T20:43:10.014Z,51.10
2023-02-23T20:45:39.881Z,50.83
2023-02-23T20:48:09.629Z,49.53
2023-02-23T20:50:39.117Z,49.37
2023-02-23T20:53:08.370Z,50.43
2023-02-23T20:55:36.387Z,53.33
2023-02-23T20:58:06.827Z,53.43
2023-02-23T21:00:34.706Z,53.43
2023-02-23T21:03:03.681Z,50.77
2023-02-23T21:05:34.117Z,49.23
2023-02-23T21:08:05.652Z,49.53
2023-02-23T21:10:35.606Z,46.50
2023-02-23T21:13:03.992Z,45.20
2023-02-23T21:15:32.449Z,46.00
2023-02-23T21:18:00.354Z,42.30
2023-02-23T21:20:28.696Z,42.87
2023-02-23T21:22:57.165Z,41.70
2023-02-23T21:25:28.442Z,42.60
2023-02-23T21:27:56.442Z,39.90
2023-02-23T21:30:28.529Z,40.73
2023-02-23T21:32:57.474Z,38.77
2023-02-23T21:35:25.504Z,39.30
2023-02-23T21:37:53.729Z,36.47
2023-02-23T21:40:22.237Z,36.97
2023-02-23T21:42:52.065Z,37.17
2023-02-23T21:45:20.434Z,35.57
2023-02-23T21:47:49.349Z,34.73
2023-02-23T21:50:19.183Z,35.47
2023-02-23T21:52:48.744Z,35.03
2023-02-23T21:55:22.136Z,36.67
2023-02-23T21:57:52.189Z,34.80
2023-02-23T22:00:20.990Z,34.57
2023-02-23T22:02:49.085Z,33.37
2023-02-23T22:05:17.726Z,33.33
2023-02-23T22:07:49.034Z,33.50
2023-02-23T22:10:17.743Z,33.40
2023-02-23T22:12:45.538Z,33.60
2023-02-23T22:15:16.730Z,33.30
2023-02-23T22:17:44.867Z,32.13
2023-02-23T22:20:13.503Z,33.03
2023-02-23T22:22:42.896Z,32.73
2023-02-23T22:25:11.446Z,33.10
2023-02-23T22:27:41.554Z,31.67
2023-02-23T22:30:12.189Z,31.53
2023-02-23T22:32:42.612Z,32.37
2023-02-23T22:35:11.144Z,31.87
2023-02-23T22:37:39.556Z,31.93
2023-02-23T22:40:13.708Z,34.10
2023-02-23T22:42:43.401Z,33.90
2023-02-23T22:45:12.003Z,35.20
2023-02-23T22:47:41.194Z,34.23
2023-02-23T22:50:12.022Z,33.33
2023-02-23T22:52:40.204Z,32.40
2023-02-23T22:55:09.122Z,32.43
2023-02-23T22:57:36.955Z,31.37
2023-02-23T23:00:10.226Z,29.17
2023-02-23T23:02:38.103Z,27.53
2023-02-23T23:05:08.793Z,28.33
2023-02-23T23:07:36.793Z,27.13
2023-02-23T23:10:05.750Z,25.67
2023-02-23T23:12:34.428Z,25.17
2023-02-23T23:15:02.988Z,26.03
2023-02-23T23:17:31.033Z,24.10
2023-02-23T23:20:00.236Z,23.97
2023-02-23T23:22:29.375Z,22.90
2023-02-23T23:24:57.239Z,22.73
2023-02-23T23:27:25.393Z,23.30
2023-02-23T23:29:53.207Z,22.17
2023-02-23T23:32:27.503Z,23.60
2023-02-23T23:34:57.345Z,24.50
2023-02-23T23:37:29.052Z,25.07
2023-02-23T23:40:00.263Z,25.60
2023-02-23T23:42:28.266Z,26.70
2023-02-23T23:44:57.009Z,27.00
2023-02-23T23:47:26.099Z,25.63
2023-02-23T23:49:54.678Z,26.83
2023-02-23T23:52:22.577Z,24.93
2023-02-23T23:54:50.644Z,23.73
2023-02-23T23:57:19.933Z,24.03
2023-02-23T23:59:48.883Z,22.60
